sensor_id;sensor_type;location;lat;lon;timestamp;pressure;altitude;pressure_sealevel;temperature;humidity
49102;BME280;34913;47.520;19.186;2023-07-02T00:00:33;98880.88;;;21.54;78.80
49102;BME280;34913;47.520;19.186;2023-07-02T00:03:00;98880.53;;;21.51;79.30
49102;BME280;34913;47.520;19.186;2023-07-02T00:05:26;98885.09;;;21.50;79.04
49102;BME280;34913;47.520;19.186;2023-07-02T00:07:51;98885.53;;;21.47;79.23
49102;BME280;34913;47.520;19.186;2023-07-02T00:10:17;98883.50;;;21.42;79.53
49102;BME280;34913;47.520;19.186;2023-07-02T00:12:42;98889.75;;;21.43;78.67
49102;BME280;34913;47.520;19.186;2023-07-02T00:15:09;98881.78;;;21.48;78.36
49102;BME280;34913;47.520;19.186;2023-07-02T00:17:35;98880.75;;;21.49;78.56
49102;BME280;34913;47.520;19.186;2023-07-02T00:20:08;98880.94;;;21.48;78.59
49102;BME280;34913;47.520;19.186;2023-07-02T00:22:42;98877.88;;;21.44;78.73
49102;BME280;34913;47.520;19.186;2023-07-02T00:25:10;98886.44;;;21.41;78.84
49102;BME280;34913;47.520;19.186;2023-07-02T00:27:35;98882.22;;;21.45;78.27
49102;BME280;34913;47.520;19.186;2023-07-02T00:30:02;98879.16;;;21.41;78.74
49102;BME280;34913;47.520;19.186;2023-07-02T00:32:28;98883.94;;;21.39;78.96
49102;BME280;34913;47.520;19.186;2023-07-02T00:34:53;98876.75;;;21.33;79.03
49102;BME280;34913;47.520;19.186;2023-07-02T00:37:19;98876.31;;;21.36;78.93
49102;BME280;34913;47.520;19.186;2023-07-02T00:39:44;98876.91;;;21.38;78.16
49102;BME280;34913;47.520;19.186;2023-07-02T00:42:09;98873.38;;;21.38;78.34
49102;BME280;34913;47.520;19.186;2023-07-02T00:44:36;98873.44;;;21.31;78.38
49102;BME280;34913;47.520;19.186;2023-07-02T00:47:09;98890.03;;;21.35;78.42
49102;BME280;34913;47.520;19.186;2023-07-02T00:49:35;98882.00;;;21.28;78.76
49102;BME280;34913;47.520;19.186;2023-07-02T00:52:00;98874.72;;;21.29;78.95
49102;BME280;34913;47.520;19.186;2023-07-02T00:54:30;98880.34;;;21.27;78.15
49102;BME280;34913;47.520;19.186;2023-07-02T00:56:56;98877.28;;;21.17;78.51
49102;BME280;34913;47.520;19.186;2023-07-02T00:59:22;98874.81;;;21.15;79.30
49102;BME280;34913;47.520;19.186;2023-07-02T01:01:47;98874.22;;;21.13;78.38
49102;BME280;34913;47.520;19.186;2023-07-02T01:04:19;98874.00;;;21.15;78.43
49102;BME280;34913;47.520;19.186;2023-07-02T01:06:44;98882.53;;;21.12;78.50
49102;BME280;34913;47.520;19.186;2023-07-02T01:09:10;98879.38;;;21.15;78.13
49102;BME280;34913;47.520;19.186;2023-07-02T01:11:57;98880.84;;;21.17;78.50
49102;BME280;34913;47.520;19.186;2023-07-02T01:16:48;98877.50;;;21.15;78.84
49102;BME280;34913;47.520;19.186;2023-07-02T01:19:21;98885.38;;;21.17;77.84
49102;BME280;34913;47.520;19.186;2023-07-02T01:21:49;98887.94;;;21.12;78.75
49102;BME280;34913;47.520;19.186;2023-07-02T01:24:16;98891.97;;;21.03;78.45
49102;BME280;34913;47.520;19.186;2023-07-02T01:26:42;98879.31;;;21.03;78.40
49102;BME280;34913;47.520;19.186;2023-07-02T01:29:17;98883.19;;;21.07;78.28
49102;BME280;34913;47.520;19.186;2023-07-02T01:31:43;98889.22;;;21.09;78.52
49102;BME280;34913;47.520;19.186;2023-07-02T01:34:09;98882.97;;;21.09;77.93
49102;BME280;34913;47.520;19.186;2023-07-02T01:36:34;98881.59;;;21.00;78.27
49102;BME280;34913;47.520;19.186;2023-07-02T01:39:00;98879.72;;;21.00;77.65
49102;BME280;34913;47.520;19.186;2023-07-02T01:41:25;98884.06;;;21.01;77.84
49102;BME280;34913;47.520;19.186;2023-07-02T01:43:51;98877.19;;;21.05;77.42
49102;BME280;34913;47.520;19.186;2023-07-02T01:46:18;98883.41;;;21.06;77.94
49102;BME280;34913;47.520;19.186;2023-07-02T01:48:43;98877.56;;;21.09;77.76
49102;BME280;34913;47.520;19.186;2023-07-02T01:51:09;98882.97;;;21.09;77.27
49102;BME280;34913;47.520;19.186;2023-07-02T01:53:34;98883.41;;;21.06;77.89
49102;BME280;34913;47.520;19.186;2023-07-02T01:55:59;98891.34;;;21.01;76.44
49102;BME280;34913;47.520;19.186;2023-07-02T01:58:25;98881.88;;;20.91;77.02
49102;BME280;34913;47.520;19.186;2023-07-02T02:00:51;98888.28;;;20.97;76.61
49102;BME280;34913;47.520;19.186;2023-07-02T02:03:16;98891.16;;;21.02;75.80
49102;BME280;34913;47.520;19.186;2023-07-02T02:05:41;98880.72;;;21.06;75.42
49102;BME280;34913;47.520;19.186;2023-07-02T02:08:07;98879.94;;;20.99;76.31
49102;BME280;34913;47.520;19.186;2023-07-02T02:10:32;98873.38;;;20.95;76.31
49102;BME280;34913;47.520;19.186;2023-07-02T02:12:58;98881.88;;;20.91;75.63
49102;BME280;34913;47.520;19.186;2023-07-02T02:15:23;98881.72;;;20.86;76.37
49102;BME280;34913;47.520;19.186;2023-07-02T02:17:49;98875.72;;;20.84;75.30
49102;BME280;34913;47.520;19.186;2023-07-02T02:20:14;98882.78;;;20.85;75.39
49102;BME280;34913;47.520;19.186;2023-07-02T02:22:39;98874.06;;;20.83;75.76
49102;BME280;34913;47.520;19.186;2023-07-02T02:25:05;98875.28;;;20.87;75.05
49102;BME280;34913;47.520;19.186;2023-07-02T02:27:31;98872.69;;;20.74;75.52
49102;BME280;34913;47.520;19.186;2023-07-02T02:29:56;98870.16;;;20.79;75.10
49102;BME280;34913;47.520;19.186;2023-07-02T02:32:21;98873.09;;;20.78;75.31
49102;BME280;34913;47.520;19.186;2023-07-02T02:34:47;98872.38;;;20.64;76.39
49102;BME280;34913;47.520;19.186;2023-07-02T02:37:13;98877.09;;;20.69;76.41
49102;BME280;34913;47.520;19.186;2023-07-02T02:39:38;98864.28;;;20.64;76.07
49102;BME280;34913;47.520;19.186;2023-07-02T02:42:04;98869.22;;;20.67;76.13
49102;BME280;34913;47.520;19.186;2023-07-02T02:44:29;98867.53;;;20.73;76.00
49102;BME280;34913;47.520;19.186;2023-07-02T02:46:57;98869.16;;;20.74;75.44
49102;BME280;34913;47.520;19.186;2023-07-02T02:49:23;98864.66;;;20.68;76.12
49102;BME280;34913;47.520;19.186;2023-07-02T02:51:48;98859.09;;;20.62;75.81
49102;BME280;34913;47.520;19.186;2023-07-02T02:54:14;98869.22;;;20.67;76.47
49102;BME280;34913;47.520;19.186;2023-07-02T02:56:39;98863.00;;;20.67;76.54
49102;BME280;34913;47.520;19.186;2023-07-02T02:59:05;98863.22;;;20.65;76.45
49102;BME280;34913;47.520;19.186;2023-07-02T03:01:30;98867.28;;;20.74;74.50
49102;BME280;34913;47.520;19.186;2023-07-02T03:03:58;98865.06;;;20.71;75.39
49102;BME280;34913;47.520;19.186;2023-07-02T03:06:24;98862.59;;;20.70;75.95
49102;BME280;34913;47.520;19.186;2023-07-02T03:08:49;98862.59;;;20.70;74.90
49102;BME280;34913;47.520;19.186;2023-07-02T03:11:15;98866.75;;;20.66;75.92
49102;BME280;34913;47.520;19.186;2023-07-02T03:13:40;98867.78;;;20.65;75.99
49102;BME280;34913;47.520;19.186;2023-07-02T03:16:06;98867.25;;;20.56;76.21
49102;BME280;34913;47.520;19.186;2023-07-02T03:18:32;98865.63;;;20.48;76.46
49102;BME280;34913;47.520;19.186;2023-07-02T03:20:58;98875.31;;;20.56;75.55
49102;BME280;34913;47.520;19.186;2023-07-02T03:23:24;98878.44;;;20.53;75.99
49102;BME280;34913;47.520;19.186;2023-07-02T03:25:49;98873.28;;;20.51;75.28
49102;BME280;34913;47.520;19.186;2023-07-02T03:28:15;98869.97;;;20.49;76.24
49102;BME280;34913;47.520;19.186;2023-07-02T03:30:40;98870.44;;;20.46;76.04
49102;BME280;34913;47.520;19.186;2023-07-02T03:33:08;98873.31;;;20.45;75.65
49102;BME280;34913;47.520;19.186;2023-07-02T03:35:33;98878.28;;;20.48;75.74
49102;BME280;34913;47.520;19.186;2023-07-02T03:37:59;98873.13;;;20.40;75.67
49102;BME280;34913;47.520;19.186;2023-07-02T03:40:24;98881.00;;;20.41;76.04
49102;BME280;34913;47.520;19.186;2023-07-02T03:42:50;98882.47;;;20.37;75.93
49102;BME280;34913;47.520;19.186;2023-07-02T03:45:15;98875.19;;;20.38;75.80
49102;BME280;34913;47.520;19.186;2023-07-02T03:47:41;98886.16;;;20.43;74.67
49102;BME280;34913;47.520;19.186;2023-07-02T03:50:06;98887.22;;;20.42;75.65
49102;BME280;34913;47.520;19.186;2023-07-02T03:52:32;98891.78;;;20.41;74.97
49102;BME280;34913;47.520;19.186;2023-07-02T03:54:57;98890.34;;;20.39;75.13
49102;BME280;34913;47.520;19.186;2023-07-02T03:57:23;98895.09;;;20.36;75.65
49102;BME280;34913;47.520;19.186;2023-07-02T03:59:48;98891.38;;;20.38;74.05
49102;BME280;34913;47.520;19.186;2023-07-02T04:02:13;98900.28;;;20.45;73.73
49102;BME280;34913;47.520;19.186;2023-07-02T04:04:39;98897.16;;;20.48;73.60
49102;BME280;34913;47.520;19.186;2023-07-02T04:07:05;98905.41;;;20.53;73.37
49102;BME280;34913;47.520;19.186;2023-07-02T04:09:30;98902.88;;;20.58;72.28
49102;BME280;34913;47.520;19.186;2023-07-02T04:11:58;98899.59;;;20.56;72.93
49102;BME280;34913;47.520;19.186;2023-07-02T04:14:23;98895.03;;;20.56;72.85
49102;BME280;34913;47.520;19.186;2023-07-02T04:16:49;98895.25;;;20.55;71.75
49102;BME280;34913;47.520;19.186;2023-07-02T04:19:14;98906.84;;;20.55;73.14
49102;BME280;34913;47.520;19.186;2023-07-02T04:21:40;98905.53;;;20.65;72.89
49102;BME280;34913;47.520;19.186;2023-07-02T04:24:05;98907.28;;;20.77;72.40
49102;BME280;34913;47.520;19.186;2023-07-02T04:26:31;98913.66;;;20.89;71.85
49102;BME280;34913;47.520;19.186;2023-07-02T04:28:56;98915.28;;;20.90;71.85
49102;BME280;34913;47.520;19.186;2023-07-02T04:31:22;98903.84;;;20.95;70.97
49102;BME280;34913;47.520;19.186;2023-07-02T04:33:47;98920.09;;;21.13;69.84
49102;BME280;34913;47.520;19.186;2023-07-02T04:36:13;98921.44;;;21.23;70.26
49102;BME280;34913;47.520;19.186;2023-07-02T04:38:38;98920.91;;;21.39;69.49
49102;BME280;34913;47.520;19.186;2023-07-02T04:41:04;98922.59;;;21.58;69.00
49102;BME280;34913;47.520;19.186;2023-07-02T04:43:33;98922.81;;;21.75;68.39
49102;BME280;34913;47.520;19.186;2023-07-02T04:45:59;98925.97;;;21.90;67.94
49102;BME280;34913;47.520;19.186;2023-07-02T04:48:25;98927.31;;;22.36;65.55
49102;BME280;34913;47.520;19.186;2023-07-02T04:50:51;98936.44;;;22.65;65.65
49102;BME280;34913;47.520;19.186;2023-07-02T04:53:16;98931.50;;;23.04;62.95
49102;BME280;34913;47.520;19.186;2023-07-02T04:55:43;98935.97;;;23.45;62.47
49102;BME280;34913;47.520;19.186;2023-07-02T04:58:09;98937.50;;;23.88;60.94
49102;BME280;34913;47.520;19.186;2023-07-02T05:00:34;98941.00;;;24.00;60.32
49102;BME280;34913;47.520;19.186;2023-07-02T05:02:59;98939.16;;;24.29;58.34
49102;BME280;34913;47.520;19.186;2023-07-02T05:05:25;98940.84;;;24.59;57.78
49102;BME280;34913;47.520;19.186;2023-07-02T05:07:50;98943.44;;;24.54;57.84
49102;BME280;34913;47.520;19.186;2023-07-02T05:10:16;98945.34;;;24.53;57.70
49102;BME280;34913;47.520;19.186;2023-07-02T05:12:41;98943.47;;;24.70;57.95
49102;BME280;34913;47.520;19.186;2023-07-02T05:15:07;98945.81;;;24.95;56.85
49102;BME280;34913;47.520;19.186;2023-07-02T05:17:32;98952.28;;;25.23;56.26
49102;BME280;34913;47.520;19.186;2023-07-02T05:20:01;98949.88;;;25.43;55.83
49102;BME280;34913;47.520;19.186;2023-07-02T05:22:26;98952.00;;;25.41;54.49
49102;BME280;34913;47.520;19.186;2023-07-02T05:24:52;98959.31;;;25.74;52.81
49102;BME280;34913;47.520;19.186;2023-07-02T05:27:17;98951.69;;;25.71;54.31
49102;BME280;34913;47.520;19.186;2023-07-02T05:29:43;98958.09;;;26.04;52.69
49102;BME280;34913;47.520;19.186;2023-07-02T05:32:08;98958.78;;;26.16;51.99
49102;BME280;34913;47.520;19.186;2023-07-02T05:34:34;98961.31;;;26.44;50.40
49102;BME280;34913;47.520;19.186;2023-07-02T05:37:00;98960.56;;;26.27;51.58
49102;BME280;34913;47.520;19.186;2023-07-02T05:39:25;98960.44;;;26.17;51.65
49102;BME280;34913;47.520;19.186;2023-07-02T05:41:50;98967.03;;;25.82;51.91
49102;BME280;34913;47.520;19.186;2023-07-02T05:44:16;98970.34;;;25.68;55.01
49102;BME280;34913;47.520;19.186;2023-07-02T05:46:42;98970.44;;;25.56;53.65
49102;BME280;34913;47.520;19.186;2023-07-02T05:49:07;98962.88;;;25.41;54.05
49102;BME280;34913;47.520;19.186;2023-07-02T05:51:33;98973.50;;;25.26;56.15
49102;BME280;34913;47.520;19.186;2023-07-02T05:53:58;98966.28;;;25.15;55.95
49102;BME280;34913;47.520;19.186;2023-07-02T05:56:24;98971.75;;;25.03;55.85
49102;BME280;34913;47.520;19.186;2023-07-02T05:58:49;98969.56;;;24.88;56.36
49102;BME280;34913;47.520;19.186;2023-07-02T06:01:15;98967.63;;;25.00;56.98
49102;BME280;34913;47.520;19.186;2023-07-02T06:03:41;98971.88;;;25.08;56.64
49102;BME280;34913;47.520;19.186;2023-07-02T06:06:07;98970.22;;;25.24;56.97
49102;BME280;34913;47.520;19.186;2023-07-02T06:08:33;98975.66;;;25.41;54.50
49102;BME280;34913;47.520;19.186;2023-07-02T06:10:59;98977.53;;;25.57;54.45
49102;BME280;34913;47.520;19.186;2023-07-02T06:13:24;98978.69;;;25.78;55.06
49102;BME280;34913;47.520;19.186;2023-07-02T06:15:50;98972.69;;;25.76;54.90
49102;BME280;34913;47.520;19.186;2023-07-02T06:18:15;98985.28;;;26.04;52.41
49102;BME280;34913;47.520;19.186;2023-07-02T06:20:42;98978.53;;;26.50;51.60
49102;BME280;34913;47.520;19.186;2023-07-02T06:23:08;98984.09;;;26.87;50.63
49102;BME280;34913;47.520;19.186;2023-07-02T06:25:34;98985.25;;;27.23;48.83
49102;BME280;34913;47.520;19.186;2023-07-02T06:27:59;98983.38;;;27.61;48.13
49102;BME280;34913;47.520;19.186;2023-07-02T06:30:25;98988.31;;;28.06;47.63
49102;BME280;34913;47.520;19.186;2023-07-02T06:32:51;98988.53;;;28.52;46.99
49102;BME280;34913;47.520;19.186;2023-07-02T06:35:16;98985.81;;;28.62;46.13
49102;BME280;34913;47.520;19.186;2023-07-02T06:37:42;98990.94;;;28.49;46.50
49102;BME280;34913;47.520;19.186;2023-07-02T06:40:08;98987.94;;;28.45;45.82
49102;BME280;34913;47.520;19.186;2023-07-02T06:42:34;98992.47;;;28.24;47.22
49102;BME280;34913;47.520;19.186;2023-07-02T06:45:01;99001.16;;;28.16;46.33
49102;BME280;34913;47.520;19.186;2023-07-02T06:47:27;99002.28;;;28.25;45.80
49102;BME280;34913;47.520;19.186;2023-07-02T06:49:52;98995.41;;;28.07;47.10
49102;BME280;34913;47.520;19.186;2023-07-02T06:52:18;98995.53;;;28.33;45.89
49102;BME280;34913;47.520;19.186;2023-07-02T06:54:43;99003.75;;;28.43;46.91
49102;BME280;34913;47.520;19.186;2023-07-02T06:57:09;98997.56;;;28.83;45.83
49102;BME280;34913;47.520;19.186;2023-07-02T06:59:34;99001.16;;;28.89;45.90
49102;BME280;34913;47.520;19.186;2023-07-02T07:02:01;98998.63;;;28.57;44.83
49102;BME280;34913;47.520;19.186;2023-07-02T07:04:27;99012.19;;;28.31;46.33
49102;BME280;34913;47.520;19.186;2023-07-02T07:06:53;99005.66;;;27.90;48.04
49102;BME280;34913;47.520;19.186;2023-07-02T07:09:20;99020.44;;;27.62;47.79
49102;BME280;34913;47.520;19.186;2023-07-02T07:11:46;99014.53;;;27.38;48.13
49102;BME280;34913;47.520;19.186;2023-07-02T07:14:11;99020.19;;;27.32;47.74
49102;BME280;34913;47.520;19.186;2023-07-02T07:16:37;99027.94;;;27.13;49.76
49102;BME280;34913;47.520;19.186;2023-07-02T07:19:02;99025.75;;;26.88;49.44
49102;BME280;34913;47.520;19.186;2023-07-02T07:21:28;99015.63;;;26.83;49.63
49102;BME280;34913;47.520;19.186;2023-07-02T07:23:54;99020.53;;;26.81;50.03
49102;BME280;34913;47.520;19.186;2023-07-02T07:26:19;99018.22;;;26.95;49.88
49102;BME280;34913;47.520;19.186;2023-07-02T07:28:44;99015.88;;;27.36;48.75
49102;BME280;34913;47.520;19.186;2023-07-02T07:31:10;99021.44;;;27.83;47.60
49102;BME280;34913;47.520;19.186;2023-07-02T07:33:35;99026.50;;;28.06;45.80
49102;BME280;34913;47.520;19.186;2023-07-02T07:36:01;99026.91;;;28.30;43.83
49102;BME280;34913;47.520;19.186;2023-07-02T07:38:26;99032.38;;;28.35;42.53
49102;BME280;34913;47.520;19.186;2023-07-02T07:40:52;99026.47;;;28.54;40.25
49102;BME280;34913;47.520;19.186;2023-07-02T07:43:17;99028.13;;;28.60;40.65
49102;BME280;34913;47.520;19.186;2023-07-02T07:45:43;99019.69;;;28.72;39.63
49102;BME280;34913;47.520;19.186;2023-07-02T07:48:08;99017.53;;;28.79;39.53
49102;BME280;34913;47.520;19.186;2023-07-02T07:50:34;99023.06;;;28.94;38.83
49102;BME280;34913;47.520;19.186;2023-07-02T07:52:59;99025.81;;;29.19;39.36
49102;BME280;34913;47.520;19.186;2023-07-02T07:55:24;99023.34;;;29.38;38.21
49102;BME280;34913;47.520;19.186;2023-07-02T07:57:50;99025.00;;;29.34;37.02
49102;BME280;34913;47.520;19.186;2023-07-02T08:00:16;99022.81;;;29.41;37.77
49102;BME280;34913;47.520;19.186;2023-07-02T08:02:43;99025.59;;;29.57;37.03
49102;BME280;34913;47.520;19.186;2023-07-02T08:05:11;99026.66;;;29.66;36.20
49102;BME280;34913;47.520;19.186;2023-07-02T08:07:37;99034.56;;;29.78;36.44
49102;BME280;34913;47.520;19.186;2023-07-02T08:10:02;99024.13;;;30.00;37.10
49102;BME280;34913;47.520;19.186;2023-07-02T08:12:28;99032.84;;;30.27;35.75
49102;BME280;34913;47.520;19.186;2023-07-02T08:14:55;99044.50;;;30.53;34.49
49102;BME280;34913;47.520;19.186;2023-07-02T08:17:21;99046.69;;;30.56;34.39
49102;BME280;34913;47.520;19.186;2023-07-02T08:19:46;99039.97;;;30.23;35.57
49102;BME280;34913;47.520;19.186;2023-07-02T08:22:12;99049.81;;;30.29;35.36
49102;BME280;34913;47.520;19.186;2023-07-02T08:24:38;99052.00;;;30.27;34.97
49102;BME280;34913;47.520;19.186;2023-07-02T08:27:03;99054.41;;;30.44;33.72
49102;BME280;34913;47.520;19.186;2023-07-02T08:29:32;99039.72;;;30.20;34.75
49102;BME280;34913;47.520;19.186;2023-07-02T08:31:58;99055.94;;;29.65;35.71
49102;BME280;34913;47.520;19.186;2023-07-02T08:34:23;99052.38;;;29.65;36.04
49102;BME280;34913;47.520;19.186;2023-07-02T08:36:49;99049.28;;;30.17;35.80
49102;BME280;34913;47.520;19.186;2023-07-02T08:39:17;99049.47;;;30.51;38.19
49102;BME280;34913;47.520;19.186;2023-07-02T08:41:46;99051.63;;;30.54;37.31
49102;BME280;34913;47.520;19.186;2023-07-02T08:44:12;99056.41;;;30.93;38.81
49102;BME280;34913;47.520;19.186;2023-07-02T08:46:42;99058.34;;;30.88;38.44
49102;BME280;34913;47.520;19.186;2023-07-02T08:49:08;99066.03;;;30.85;39.48
49102;BME280;34913;47.520;19.186;2023-07-02T08:51:34;99069.94;;;30.69;37.95
49102;BME280;34913;47.520;19.186;2023-07-02T08:54:01;99072.72;;;30.49;39.24
49102;BME280;34913;47.520;19.186;2023-07-02T08:56:26;99072.94;;;30.73;38.10
49102;BME280;34913;47.520;19.186;2023-07-02T08:58:52;99080.25;;;30.18;39.69
49102;BME280;34913;47.520;19.186;2023-07-02T09:01:19;99073.97;;;29.87;39.28
49102;BME280;34913;47.520;19.186;2023-07-02T09:03:45;99075.88;;;29.86;40.69
49102;BME280;34913;47.520;19.186;2023-07-02T09:06:11;99080.78;;;29.84;38.65
49102;BME280;34913;47.520;19.186;2023-07-02T09:08:38;99080.78;;;29.54;40.41
49102;BME280;34913;47.520;19.186;2023-07-02T09:13:52;99075.03;;;29.40;41.14
49102;BME280;34913;47.520;19.186;2023-07-02T09:16:33;99067.09;;;29.33;39.01
49102;BME280;34913;47.520;19.186;2023-07-02T09:19:06;99086.22;;;29.28;38.88
49102;BME280;34913;47.520;19.186;2023-07-02T09:21:52;99088.41;;;29.36;40.28
49102;BME280;34913;47.520;19.186;2023-07-02T09:26:46;99079.38;;;29.26;41.18
49102;BME280;34913;47.520;19.186;2023-07-02T09:29:12;99082.19;;;29.66;40.88
49102;BME280;34913;47.520;19.186;2023-07-02T09:31:45;99079.69;;;29.85;38.32
49102;BME280;34913;47.520;19.186;2023-07-02T09:34:11;99081.34;;;29.66;38.68
49102;BME280;34913;47.520;19.186;2023-07-02T09:36:38;99078.59;;;29.91;38.63
49102;BME280;34913;47.520;19.186;2023-07-02T09:39:10;99073.91;;;30.27;37.05
49102;BME280;34913;47.520;19.186;2023-07-02T09:41:36;99069.69;;;30.55;38.02
49102;BME280;34913;47.520;19.186;2023-07-02T09:44:02;99082.56;;;30.55;37.58
49102;BME280;34913;47.520;19.186;2023-07-02T09:46:28;99083.38;;;30.55;37.58
49102;BME280;34913;47.520;19.186;2023-07-02T09:48:55;99072.91;;;30.78;36.95
49102;BME280;34913;47.520;19.186;2023-07-02T09:51:21;99083.06;;;30.77;38.52
49102;BME280;34913;47.520;19.186;2023-07-02T09:53:48;99071.91;;;31.13;37.75
49102;BME280;34913;47.520;19.186;2023-07-02T09:56:13;99080.31;;;31.27;38.58
49102;BME280;34913;47.520;19.186;2023-07-02T09:58:39;99083.84;;;31.37;37.63
49102;BME280;34913;47.520;19.186;2023-07-02T10:01:04;99079.03;;;31.09;37.64
49102;BME280;34913;47.520;19.186;2023-07-02T10:03:33;99084.00;;;31.07;37.53
49102;BME280;34913;47.520;19.186;2023-07-02T10:06:05;99079.78;;;30.70;38.12
49102;BME280;34913;47.520;19.186;2023-07-02T10:08:31;99079.25;;;30.73;38.31
49102;BME280;34913;47.520;19.186;2023-07-02T10:11:10;99070.75;;;30.75;39.42
49102;BME280;34913;47.520;19.186;2023-07-02T10:13:37;99073.44;;;30.85;39.63
49102;BME280;34913;47.520;19.186;2023-07-02T10:16:04;99075.78;;;31.02;36.61
49102;BME280;34913;47.520;19.186;2023-07-02T10:18:29;99080.25;;;30.88;37.40
49102;BME280;34913;47.520;19.186;2023-07-02T10:20:55;99083.25;;;30.91;38.11
49102;BME280;34913;47.520;19.186;2023-07-02T10:23:32;99074.31;;;30.75;39.03
49102;BME280;34913;47.520;19.186;2023-07-02T10:26:09;99075.50;;;30.39;35.91
49102;BME280;34913;47.520;19.186;2023-07-02T10:28:35;99082.84;;;30.58;36.78
49102;BME280;34913;47.520;19.186;2023-07-02T10:31:00;99062.66;;;30.34;37.39
49102;BME280;34913;47.520;19.186;2023-07-02T10:33:26;99075.72;;;30.57;36.73
49102;BME280;34913;47.520;19.186;2023-07-02T10:35:51;99075.75;;;30.47;37.91
49102;BME280;34913;47.520;19.186;2023-07-02T10:38:22;99072.66;;;30.64;38.57
49102;BME280;34913;47.520;19.186;2023-07-02T10:40:54;99075.06;;;30.86;37.51
49102;BME280;34913;47.520;19.186;2023-07-02T10:43:28;99069.94;;;30.64;36.20
49102;BME280;34913;47.520;19.186;2023-07-02T10:45:54;99072.66;;;30.74;37.22
49102;BME280;34913;47.520;19.186;2023-07-02T10:48:20;99071.56;;;30.75;36.34
49102;BME280;34913;47.520;19.186;2023-07-02T10:50:46;99070.19;;;30.78;35.85
49102;BME280;34913;47.520;19.186;2023-07-02T10:53:18;99069.34;;;30.82;36.36
49102;BME280;34913;47.520;19.186;2023-07-02T10:55:45;99070.41;;;30.87;36.45
49102;BME280;34913;47.520;19.186;2023-07-02T10:58:12;99059.78;;;30.75;37.54
49102;BME280;34913;47.520;19.186;2023-07-02T11:00:46;99056.09;;;30.25;38.34
49102;BME280;34913;47.520;19.186;2023-07-02T11:03:20;99063.94;;;30.57;38.76
49102;BME280;34913;47.520;19.186;2023-07-02T11:05:46;99053.88;;;30.37;38.13
49102;BME280;34913;47.520;19.186;2023-07-02T11:08:12;99058.19;;;30.53;36.84
49102;BME280;34913;47.520;19.186;2023-07-02T11:10:38;99056.75;;;30.76;38.04
49102;BME280;34913;47.520;19.186;2023-07-02T11:13:14;99045.53;;;30.73;37.24
49102;BME280;34913;47.520;19.186;2023-07-02T11:15:40;99048.47;;;30.87;37.30
49102;BME280;34913;47.520;19.186;2023-07-02T11:18:14;99049.81;;;30.29;39.04
49102;BME280;34913;47.520;19.186;2023-07-02T11:20:40;99040.13;;;30.52;38.01
49102;BME280;34913;47.520;19.186;2023-07-02T11:23:22;99045.16;;;30.25;38.08
49102;BME280;34913;47.520;19.186;2023-07-02T11:25:58;99051.72;;;30.29;37.61
49102;BME280;34913;47.520;19.186;2023-07-02T11:28:24;99047.44;;;29.67;39.23
49102;BME280;34913;47.520;19.186;2023-07-02T11:30:50;99049.91;;;29.53;39.30
49102;BME280;34913;47.520;19.186;2023-07-02T11:33:15;99051.78;;;29.93;38.75
49102;BME280;34913;47.520;19.186;2023-07-02T11:35:40;99057.31;;;29.63;39.75
49102;BME280;34913;47.520;19.186;2023-07-02T11:38:08;99055.34;;;29.89;41.72
49102;BME280;34913;47.520;19.186;2023-07-02T11:40:36;99051.00;;;29.62;40.05
49102;BME280;34913;47.520;19.186;2023-07-02T11:43:01;99053.44;;;29.94;39.46
49102;BME280;34913;47.520;19.186;2023-07-02T11:45:27;99055.03;;;30.06;38.38
49102;BME280;34913;47.520;19.186;2023-07-02T11:47:54;99053.97;;;30.12;36.90
49102;BME280;34913;47.520;19.186;2023-07-02T11:50:19;99056.06;;;30.40;36.32
49102;BME280;34913;47.520;19.186;2023-07-02T11:52:48;99064.56;;;30.44;36.54
49102;BME280;34913;47.520;19.186;2023-07-02T11:55:13;99051.72;;;30.34;37.03
49102;BME280;34913;47.520;19.186;2023-07-02T11:57:38;99049.47;;;30.41;36.64
49102;BME280;34913;47.520;19.186;2023-07-02T12:00:05;99045.59;;;30.57;37.29
49102;BME280;34913;47.520;19.186;2023-07-02T12:02:30;99048.31;;;30.68;37.19
49102;BME280;34913;47.520;19.186;2023-07-02T12:04:56;99050.56;;;30.45;37.97
49102;BME280;34913;47.520;19.186;2023-07-02T12:07:21;99047.25;;;30.58;35.81
49102;BME280;34913;47.520;19.186;2023-07-02T12:09:47;99048.06;;;30.54;36.03
49102;BME280;34913;47.520;19.186;2023-07-02T12:12:13;99043.34;;;30.65;35.52
49102;BME280;34913;47.520;19.186;2023-07-02T12:14:38;99043.66;;;30.68;35.38
49102;BME280;34913;47.520;19.186;2023-07-02T12:17:07;99038.19;;;30.68;35.09
49102;BME280;34913;47.520;19.186;2023-07-02T12:19:32;99039.50;;;30.76;33.97
49102;BME280;34913;47.520;19.186;2023-07-02T12:22:00;99028.31;;;30.57;34.63
49102;BME280;34913;47.520;19.186;2023-07-02T12:24:26;99052.19;;;30.51;34.58
49102;BME280;34913;47.520;19.186;2023-07-02T12:26:51;99048.59;;;30.61;34.70
49102;BME280;34913;47.520;19.186;2023-07-02T12:29:17;99045.56;;;30.63;35.91
49102;BME280;34913;47.520;19.186;2023-07-02T12:31:42;99033.91;;;30.37;37.37
49102;BME280;34913;47.520;19.186;2023-07-02T12:34:08;99044.00;;;30.41;35.52
49102;BME280;34913;47.520;19.186;2023-07-02T12:36:33;99054.50;;;29.98;36.41
49102;BME280;34913;47.520;19.186;2023-07-02T12:38:58;99047.69;;;29.86;36.95
49102;BME280;34913;47.520;19.186;2023-07-02T12:41:24;99049.59;;;29.95;37.11
49102;BME280;34913;47.520;19.186;2023-07-02T12:43:52;99058.06;;;30.09;36.89
49102;BME280;34913;47.520;19.186;2023-07-02T12:46:18;99052.63;;;29.73;37.56
49102;BME280;34913;47.520;19.186;2023-07-02T12:48:43;99060.47;;;28.94;38.67
49102;BME280;34913;47.520;19.186;2023-07-02T12:51:09;99051.81;;;29.32;38.29
49102;BME280;34913;47.520;19.186;2023-07-02T12:53:34;99050.44;;;29.60;39.52